createdAt,value
2019-02-16T00:00:45.941Z,89.52
2019-02-16T00:03:15.256Z,89.37
2019-02-16T00:05:44.569Z,89.12
2019-02-16T00:08:13.870Z,89.90
2019-02-16T00:10:43.189Z,90.08
2019-02-16T00:13:12.502Z,90.59
2019-02-16T00:15:42.029Z,89.56
2019-02-16T00:18:11.568Z,89.07
2019-02-16T00:20:41.108Z,89.02
2019-02-16T00:23:10.798Z,89.39
2019-02-16T00:25:40.100Z,88.24
2019-02-16T00:28:09.434Z,88.24
2019-02-16T00:30:38.825Z,88.35
2019-02-16T00:33:08.143Z,88.35
2019-02-16T00:35:37.448Z,87.98
2019-02-16T00:38:06.779Z,88.58
2019-02-16T00:40:36.059Z,89.47
2019-02-16T00:43:05.365Z,89.93
2019-02-16T00:45:36.577Z,90.30
2019-02-16T00:48:05.799Z,90.30
2019-02-16T00:50:38.257Z,91.39
2019-02-16T00:53:06.917Z,91.00
2019-02-16T00:55:36.266Z,91.74
2019-02-16T00:58:05.609Z,91.63
2019-02-16T01:00:35.155Z,92.51
2019-02-16T01:03:04.524Z,92.39
2019-02-16T01:05:34.008Z,93.69
2019-02-16T01:08:03.389Z,93.64
2019-02-16T01:10:32.764Z,94.52
2019-02-16T01:13:02.066Z,93.83
2019-02-16T01:15:31.494Z,94.96
2019-02-16T01:18:01.102Z,94.48
2019-02-16T01:20:30.615Z,94.70
2019-02-16T01:22:59.927Z,94.48
2019-02-16T01:25:29.222Z,96.10
2019-02-16T01:27:58.527Z,96.00
2019-02-16T01:30:27.820Z,95.38
2019-02-16T01:32:57.125Z,95.66
2019-02-16T01:35:26.471Z,95.93
2019-02-16T01:37:55.853Z,96.51
2019-02-16T01:40:25.142Z,96.58
2019-02-16T01:42:54.436Z,97.19
2019-02-16T01:45:23.712Z,98.00
2019-02-16T01:47:53.124Z,97.10
2019-02-16T01:50:22.410Z,97.18
2019-02-16T01:52:51.696Z,97.73
2019-02-16T01:55:20.973Z,97.27
2019-02-16T01:57:50.290Z,97.45
2019-02-16T02:00:19.642Z,97.09
2019-02-16T02:02:48.967Z,97.66
2019-02-16T02:05:18.597Z,97.87
2019-02-16T02:07:48.075Z,97.68
2019-02-16T02:10:19.292Z,98.18
2019-02-16T02:12:49.108Z,98.97
2019-02-16T02:15:20.070Z,98.84
2019-02-16T02:17:49.544Z,98.93
2019-02-16T02:20:19.131Z,99.54
2019-02-16T02:22:48.716Z,99.30
2019-02-16T02:25:18.006Z,99.00
2019-02-16T02:27:47.314Z,99.11
2019-02-16T02:30:16.894Z,98.70
2019-02-16T02:32:46.191Z,98.96
2019-02-16T02:35:15.539Z,98.64
2019-02-16T02:37:44.817Z,99.74
2019-02-16T02:40:14.485Z,99.37
2019-02-16T02:42:43.766Z,100.00
2019-02-16T02:45:13.144Z,100.00
2019-02-16T02:47:42.436Z,100.00
2019-02-16T02:50:11.752Z,100.00
2019-02-16T02:52:41.022Z,99.76
2019-02-16T02:55:10.586Z,99.97
2019-02-16T02:57:39.872Z,100.00
2019-02-16T03:00:10.514Z,99.57
2019-02-16T03:02:39.885Z,100.00
2019-02-16T03:05:10.729Z,100.00
2019-02-16T03:07:40.108Z,99.54
2019-02-16T03:10:09.377Z,99.98
2019-02-16T03:12:38.694Z,100.00
2019-02-16T03:15:09.200Z,100.00
2019-02-16T03:17:38.498Z,100.00
2019-02-16T03:20:07.914Z,100.00
2019-02-16T03:23:14.807Z,100.00
2019-02-16T03:25:50.149Z,100.00
2019-02-16T03:28:44.061Z,100.00
2019-02-16T03:31:33.012Z,100.00
2019-02-16T03:34:25.982Z,100.00
2019-02-16T03:37:18.049Z,99.01
2019-02-16T03:39:47.937Z,98.88
2019-02-16T03:42:17.430Z,98.32
2019-02-16T03:44:46.721Z,97.84
2019-02-16T03:47:16.039Z,96.90
2019-02-16T03:49:45.370Z,97.33
2019-02-16T03:52:14.749Z,97.04
2019-02-16T03:54:44.091Z,96.80
2019-02-16T03:57:13.384Z,97.58
2019-02-16T03:59:42.694Z,98.05
2019-02-16T04:02:13.651Z,97.67
2019-02-16T04:04:43.023Z,97.61
2019-02-16T04:07:12.310Z,97.61
2019-02-16T04:09:41.692Z,97.74
2019-02-16T04:12:10.989Z,98.19
2019-02-16T04:14:40.270Z,98.25
2019-02-16T04:17:09.592Z,97.67
2019-02-16T04:19:38.947Z,97.06
2019-02-16T04:22:08.266Z,96.39
2019-02-16T04:24:37.565Z,96.15
2019-02-16T04:27:06.952Z,95.79
2019-02-16T04:29:36.302Z,96.16
2019-02-16T04:32:05.579Z,96.73
2019-02-16T04:34:34.889Z,98.06
2019-02-16T04:37:04.262Z,97.43
2019-02-16T04:39:33.562Z,96.16
2019-02-16T04:42:03.251Z,95.64
2019-02-16T04:44:32.551Z,96.06
2019-02-16T04:47:01.924Z,95.64
2019-02-16T04:49:31.217Z,95.61
2019-02-16T04:52:00.564Z,95.13
2019-02-16T04:54:29.839Z,95.73
2019-02-16T04:57:02.059Z,95.07
2019-02-16T04:59:31.393Z,94.68
2019-02-16T05:02:00.683Z,95.34
2019-02-16T05:04:30.443Z,98.67
2019-02-16T05:06:59.728Z,95.01
2019-02-16T05:09:29.067Z,98.18
2019-02-16T05:11:58.415Z,99.11
2019-02-16T05:14:27.683Z,98.89
2019-02-16T05:16:57.556Z,97.04
2019-02-16T05:19:26.850Z,97.04
2019-02-16T05:21:56.150Z,98.24
2019-02-16T05:24:25.470Z,99.38
2019-02-16T05:26:54.798Z,99.99
2019-02-16T05:29:26.756Z,100.00
2019-02-16T05:31:56.108Z,100.00
2019-02-16T05:34:25.485Z,99.95
2019-02-16T05:36:54.780Z,100.00
2019-02-16T05:39:24.061Z,100.00
2019-02-16T05:41:53.416Z,100.00
2019-02-16T05:44:22.688Z,100.00
2019-02-16T05:46:51.989Z,100.00
2019-02-16T05:49:21.301Z,100.00
2019-02-16T05:51:50.611Z,100.00
2019-02-16T05:54:19.891Z,100.00
2019-02-16T05:56:49.259Z,100.00
2019-02-16T05:59:18.577Z,100.00
2019-02-16T06:01:53.751Z,100.00
2019-02-16T06:04:19.435Z,100.00
2019-02-16T06:06:48.824Z,100.00
2019-02-16T06:09:18.138Z,100.00
2019-02-16T06:11:47.426Z,100.00
2019-02-16T06:14:16.764Z,100.00
2019-02-16T06:16:46.056Z,100.00
2019-02-16T06:19:15.358Z,100.00
2019-02-16T06:21:44.722Z,100.00
2019-02-16T06:24:14.033Z,100.00
2019-02-16T06:26:43.329Z,100.00
2019-02-16T06:29:12.838Z,100.00
2019-02-16T06:31:42.117Z,100.00
2019-02-16T06:34:11.423Z,100.00
2019-02-16T06:36:40.747Z,99.24
2019-02-16T06:39:10.315Z,98.52
2019-02-16T06:41:39.592Z,97.50
2019-02-16T06:44:09.173Z,99.60
2019-02-16T06:46:38.473Z,100.00
2019-02-16T06:49:07.792Z,100.00
2019-02-16T06:51:37.254Z,100.00
2019-02-16T06:54:06.572Z,100.00
2019-02-16T06:56:37.534Z,100.00
2019-02-16T06:59:06.850Z,100.00
2019-02-16T07:01:36.137Z,100.00
2019-02-16T07:04:05.445Z,100.00
2019-02-16T07:06:34.839Z,100.00
2019-02-16T07:09:05.092Z,100.00
2019-02-16T07:11:34.409Z,100.00
2019-02-16T07:14:03.905Z,100.00
2019-02-16T07:16:43.715Z,100.00
2019-02-16T07:19:14.737Z,100.00
2019-02-16T07:21:44.224Z,99.66
2019-02-16T07:24:14.061Z,99.18
2019-02-16T07:26:43.516Z,97.88
2019-02-16T07:29:12.972Z,96.91
2019-02-16T07:31:43.553Z,96.28
2019-02-16T07:34:12.858Z,97.00
2019-02-16T07:36:42.311Z,97.57
2019-02-16T07:39:12.165Z,95.87
2019-02-16T07:41:41.560Z,92.78
2019-02-16T07:44:15.182Z,91.46
2019-02-16T07:46:46.227Z,89.86
2019-02-16T07:49:17.450Z,86.48
2019-02-16T07:52:04.745Z,81.74
2019-02-16T07:54:52.216Z,81.74
2019-02-16T07:57:23.244Z,80.41
2019-02-16T07:59:54.188Z,80.71
2019-02-16T08:02:36.904Z,82.62
2019-02-16T08:05:14.173Z,82.30
2019-02-16T08:08:01.882Z,82.02
2019-02-16T08:10:38.566Z,84.01
2019-02-16T08:13:15.125Z,84.15
2019-02-16T08:15:55.506Z,84.85
2019-02-16T08:18:26.415Z,84.03
2019-02-16T08:21:03.314Z,86.14
2019-02-16T08:23:40.201Z,86.65
2019-02-16T08:26:18.689Z,85.44
2019-02-16T08:28:49.809Z,85.40
2019-02-16T08:31:21.242Z,84.92
2019-02-16T08:33:52.280Z,82.02
2019-02-16T08:36:32.089Z,78.61
2019-02-16T08:39:03.027Z,78.61
2019-02-16T08:41:42.688Z,76.32
2019-02-16T08:44:13.649Z,76.32
2019-02-16T08:46:44.587Z,75.31
2019-02-16T08:49:27.519Z,74.53
2019-02-16T08:52:15.055Z,71.78
2019-02-16T08:54:48.698Z,66.54
2019-02-16T08:57:31.401Z,55.34
2019-02-16T09:00:17.064Z,53.04
2019-02-16T09:02:48.063Z,51.46
2019-02-16T09:05:21.996Z,47.80
2019-02-16T09:07:58.554Z,50.90
2019-02-16T09:10:32.255Z,51.77
2019-02-16T09:13:03.214Z,54.23
2019-02-16T09:15:39.842Z,53.46
2019-02-16T09:18:13.506Z,56.71
2019-02-16T09:20:47.145Z,56.32
2019-02-16T09:23:35.895Z,55.60
2019-02-16T09:26:09.587Z,57.30
2019-02-16T09:28:55.290Z,56.14
2019-02-16T09:31:32.523Z,57.76
2019-02-16T09:34:05.903Z,55.67
2019-02-16T09:36:39.752Z,55.70
2019-02-16T09:39:10.853Z,60.00
2019-02-16T09:41:41.976Z,54.22
2019-02-16T09:44:27.962Z,49.20
2019-02-16T09:47:14.867Z,53.52
2019-02-16T09:49:51.886Z,51.71
2019-02-16T09:52:31.810Z,52.24
2019-02-16T09:55:14.344Z,50.56
2019-02-16T09:57:47.997Z,52.36
2019-02-16T10:00:21.880Z,53.53
2019-02-16T10:02:52.826Z,52.35
2019-02-16T10:05:27.177Z,51.74
2019-02-16T10:08:10.414Z,52.28
2019-02-16T10:10:44.291Z,52.52
2019-02-16T10:13:15.223Z,55.32
2019-02-16T10:15:54.880Z,53.57
2019-02-16T10:18:28.744Z,52.26
2019-02-16T10:20:59.879Z,52.95
2019-02-16T10:23:36.805Z,52.36
2019-02-16T10:26:10.439Z,51.02
2019-02-16T10:28:44.313Z,49.58
2019-02-16T10:31:15.263Z,50.38
2019-02-16T10:34:02.711Z,47.87
2019-02-16T10:36:36.515Z,45.66
2019-02-16T10:39:17.051Z,45.09
2019-02-16T10:41:50.936Z,44.24
2019-02-16T10:44:37.041Z,44.09
2019-02-16T10:47:13.608Z,42.34
2019-02-16T10:49:59.811Z,42.46
2019-02-16T10:52:31.210Z,41.84
2019-02-16T10:55:18.292Z,43.73
2019-02-16T10:57:49.416Z,42.01
2019-02-16T11:00:26.699Z,40.54
2019-02-16T11:02:57.647Z,37.67
2019-02-16T11:05:40.764Z,36.15
2019-02-16T11:08:23.571Z,34.60
2019-02-16T11:10:56.939Z,35.10
2019-02-16T11:13:30.585Z,33.63
2019-02-16T11:16:01.510Z,34.95
2019-02-16T11:18:38.104Z,36.71
2019-02-16T11:21:12.055Z,38.58
2019-02-16T11:23:48.803Z,34.72
2019-02-16T11:26:37.937Z,32.89
2019-02-16T11:29:24.187Z,31.60
2019-02-16T11:32:06.924Z,32.42
2019-02-16T11:34:54.233Z,32.55
2019-02-16T11:37:30.873Z,34.21
2019-02-16T11:40:05.134Z,36.44
2019-02-16T11:42:36.076Z,35.38
2019-02-16T11:45:24.850Z,33.15
2019-02-16T11:47:55.792Z,34.26
2019-02-16T11:50:38.377Z,32.10
2019-02-16T11:53:15.461Z,30.59
2019-02-16T11:56:01.134Z,35.12
2019-02-16T11:58:48.307Z,34.25
2019-02-16T12:01:35.170Z,31.08
2019-02-16T12:04:09.234Z,32.68
2019-02-16T12:06:49.329Z,36.05
2019-02-16T12:09:29.352Z,33.98
2019-02-16T12:12:00.313Z,32.15
2019-02-16T12:14:37.258Z,29.55
2019-02-16T12:17:08.304Z,28.77
2019-02-16T12:19:50.878Z,30.30
2019-02-16T12:22:21.820Z,28.82
2019-02-16T12:25:06.097Z,31.69
2019-02-16T12:27:43.595Z,33.21
2019-02-16T12:30:26.147Z,29.95
2019-02-16T12:32:57.068Z,30.73
2019-02-16T12:35:34.046Z,30.12
2019-02-16T12:38:04.994Z,29.48
2019-02-16T12:40:44.681Z,29.58
2019-02-16T12:43:15.597Z,28.64
2019-02-16T12:45:51.317Z,28.16
2019-02-16T12:48:23.136Z,28.38
2019-02-16T12:51:10.187Z,26.99
2019-02-16T12:53:56.326Z,24.65
2019-02-16T12:56:29.930Z,24.72
2019-02-16T12:59:03.878Z,23.24
2019-02-16T13:01:37.596Z,25.14
2019-02-16T13:04:23.567Z,23.81
2019-02-16T13:06:57.100Z,28.83
2019-02-16T13:09:30.992Z,30.98
2019-02-16T13:12:20.250Z,26.81
2019-02-16T13:14:58.071Z,25.41
2019-02-16T13:17:47.652Z,23.86
2019-02-16T13:20:18.603Z,26.01
2019-02-16T13:22:49.555Z,26.29
2019-02-16T13:25:24.724Z,27.36
2019-02-16T13:27:58.517Z,26.85
2019-02-16T13:30:35.255Z,26.86
2019-02-16T13:33:14.951Z,26.54
2019-02-16T13:35:54.617Z,30.89
2019-02-16T13:38:28.338Z,27.53
2019-02-16T13:41:01.999Z,26.12
2019-02-16T13:43:42.106Z,31.40
2019-02-16T13:46:19.284Z,32.54
2019-02-16T13:48:50.342Z,29.06
2019-02-16T13:51:37.742Z,27.29
2019-02-16T13:54:20.711Z,27.01
2019-02-16T13:57:10.190Z,28.12
2019-02-16T13:59:41.141Z,30.31
2019-02-16T14:02:27.968Z,32.49
2019-02-16T14:05:02.203Z,34.27
2019-02-16T14:07:49.454Z,36.51
2019-02-16T14:10:26.568Z,36.76
2019-02-16T14:13:00.197Z,37.91
2019-02-16T14:15:33.805Z,38.28
2019-02-16T14:18:03.090Z,39.04
2019-02-16T14:20:35.257Z,38.91
2019-02-16T14:23:04.608Z,40.18
2019-02-16T14:25:42.791Z,40.39
2019-02-16T14:28:08.162Z,40.73
2019-02-16T14:30:37.480Z,41.02
2019-02-16T14:33:06.788Z,41.14
2019-02-16T14:35:36.170Z,41.61
2019-02-16T14:38:12.863Z,41.50
2019-02-16T14:40:42.194Z,41.33
2019-02-16T14:43:11.497Z,42.38
2019-02-16T14:45:41.459Z,42.16
2019-02-16T14:48:10.786Z,41.46
2019-02-16T14:50:40.188Z,41.70
2019-02-16T14:53:09.503Z,41.73
2019-02-16T14:55:38.789Z,41.63
2019-02-16T14:58:08.119Z,41.80
2019-02-16T15:00:37.433Z,41.54
2019-02-16T15:03:06.759Z,41.55
2019-02-16T15:05:36.052Z,40.85
2019-02-16T15:08:05.663Z,40.72
2019-02-16T15:10:35.051Z,41.22
2019-02-16T15:13:04.475Z,41.74
2019-02-16T15:15:33.764Z,41.90
2019-02-16T15:18:03.865Z,41.39
2019-02-16T15:20:33.448Z,41.49
2019-02-16T15:23:02.934Z,41.25
2019-02-16T15:25:32.195Z,41.67
2019-02-16T15:28:01.520Z,42.21
2019-02-16T15:30:30.807Z,42.95
2019-02-16T15:33:00.125Z,43.31
2019-02-16T15:35:29.423Z,43.37
2019-02-16T15:37:58.801Z,43.61
2019-02-16T15:40:28.101Z,44.30
2019-02-16T15:42:57.460Z,44.55
2019-02-16T15:45:26.750Z,45.18
2019-02-16T15:47:56.899Z,45.40
2019-02-16T15:50:26.470Z,45.93
2019-02-16T15:52:55.862Z,45.17
2019-02-16T15:55:25.161Z,45.38
2019-02-16T15:57:54.496Z,45.35
2019-02-16T16:00:25.455Z,45.72
2019-02-16T16:02:54.919Z,46.13
2019-02-16T16:05:24.235Z,46.40
2019-02-16T16:07:55.194Z,46.94
2019-02-16T16:10:26.144Z,47.80
2019-02-16T16:12:57.237Z,47.94
2019-02-16T16:15:44.777Z,48.19
2019-02-16T16:18:15.979Z,48.03
2019-02-16T16:20:46.929Z,47.96
2019-02-16T16:23:20.596Z,48.42
2019-02-16T16:25:54.683Z,48.94
2019-02-16T16:28:31.875Z,50.01
2019-02-16T16:31:15.156Z,49.55
2019-02-16T16:34:01.387Z,51.08
2019-02-16T16:36:32.343Z,52.12
2019-02-16T16:39:06.227Z,53.38
2019-02-16T16:41:43.114Z,54.19
2019-02-16T16:44:16.724Z,55.41
2019-02-16T16:46:47.675Z,55.12
2019-02-16T16:49:24.324Z,57.15
2019-02-16T16:52:06.909Z,58.75
2019-02-16T16:54:43.609Z,59.04
2019-02-16T16:57:17.053Z,60.96
2019-02-16T16:59:48.015Z,61.29
2019-02-16T17:02:25.056Z,62.06
2019-02-16T17:05:12.056Z,63.81
2019-02-16T17:07:54.934Z,61.96
2019-02-16T17:10:25.900Z,65.43
2019-02-16T17:13:02.941Z,67.12
2019-02-16T17:15:36.435Z,67.16
2019-02-16T17:18:07.364Z,65.49
2019-02-16T17:20:43.869Z,65.76
2019-02-16T17:23:30.016Z,66.22
2019-02-16T17:26:19.211Z,67.12
2019-02-16T17:28:59.239Z,68.80
2019-02-16T17:31:30.205Z,70.55
2019-02-16T17:34:13.053Z,71.04
2019-02-16T17:36:48.415Z,72.34
2019-02-16T17:39:25.199Z,70.18
2019-02-16T17:41:58.985Z,73.54
2019-02-16T17:44:29.917Z,73.98
2019-02-16T17:47:03.957Z,75.75
2019-02-16T17:49:37.758Z,76.61
2019-02-16T17:52:24.585Z,76.58
2019-02-16T17:55:14.048Z,75.93
2019-02-16T17:57:47.822Z,77.92
2019-02-16T18:00:33.539Z,79.62
2019-02-16T18:03:10.240Z,80.77
2019-02-16T18:05:46.862Z,81.35
2019-02-16T18:08:32.551Z,82.80
2019-02-16T18:11:15.701Z,82.48
2019-02-16T18:13:46.667Z,81.60
2019-02-16T18:16:26.500Z,82.33
2019-02-16T18:19:03.227Z,82.71
2019-02-16T18:21:34.330Z,83.64
2019-02-16T18:24:11.323Z,83.89
2019-02-16T18:26:42.550Z,85.92
2019-02-16T18:29:34.486Z,86.05
2019-02-16T18:32:12.640Z,86.39
2019-02-16T18:34:46.333Z,86.44
2019-02-16T18:37:35.289Z,86.42
2019-02-16T18:40:07.344Z,86.75
2019-02-16T18:42:50.215Z,87.20
2019-02-16T18:45:23.851Z,88.18
2019-02-16T18:47:54.837Z,89.17
2019-02-16T18:50:33.053Z,89.83
2019-02-16T18:53:03.974Z,89.90
2019-02-16T18:55:37.575Z,90.20
2019-02-16T18:58:17.404Z,90.94
2019-02-16T19:00:48.356Z,90.94
2019-02-16T19:03:31.320Z,91.19
2019-02-16T19:06:18.146Z,91.41
2019-02-16T19:08:55.184Z,91.03
2019-02-16T19:11:27.676Z,91.11
2019-02-16T19:14:11.109Z,92.42
2019-02-16T19:16:42.092Z,93.23
2019-02-16T19:19:29.405Z,93.23
2019-02-16T19:22:16.470Z,92.73
2019-02-16T19:24:47.410Z,91.97
2019-02-16T19:27:23.939Z,91.97
2019-02-16T19:29:56.306Z,92.45
2019-02-16T19:32:43.635Z,93.12
2019-02-16T19:35:17.514Z,93.12
2019-02-16T19:37:51.263Z,93.58
2019-02-16T19:40:38.439Z,93.72
2019-02-16T19:43:12.090Z,93.78
2019-02-16T19:45:46.034Z,94.21
2019-02-16T19:48:25.911Z,94.43
2019-02-16T19:50:59.611Z,95.24
2019-02-16T19:53:33.289Z,94.20
2019-02-16T19:56:04.227Z,94.75
2019-02-16T19:58:51.205Z,94.73
2019-02-16T20:01:22.129Z,95.49
2019-02-16T20:03:55.869Z,95.97
2019-02-16T20:06:26.802Z,96.17
2019-02-16T20:09:00.447Z,96.44
2019-02-16T20:11:31.369Z,96.99
2019-02-16T20:14:08.468Z,96.00
2019-02-16T20:16:39.483Z,97.10
2019-02-16T20:19:28.740Z,97.04
2019-02-16T20:22:02.560Z,97.02
2019-02-16T20:24:36.008Z,96.28
2019-02-16T20:27:07.724Z,97.24
2019-02-16T20:29:39.039Z,97.20
2019-02-16T20:32:16.195Z,97.39
2019-02-16T20:35:05.430Z,98.18
2019-02-16T20:37:36.368Z,97.58
2019-02-16T20:40:24.567Z,96.00
2019-02-16T20:42:58.312Z,94.64
2019-02-16T20:45:38.332Z,92.77
2019-02-16T20:48:12.289Z,92.28
2019-02-16T20:50:46.276Z,91.60
2019-02-16T20:53:26.441Z,91.58
2019-02-16T20:56:00.183Z,94.41
2019-02-16T20:58:39.984Z,94.33
2019-02-16T21:01:16.586Z,95.18
2019-02-16T21:03:53.236Z,95.19
2019-02-16T21:06:24.221Z,95.52
2019-02-16T21:09:07.611Z,95.72
2019-02-16T21:11:47.482Z,94.80
2019-02-16T21:14:18.422Z,95.92
2019-02-16T21:17:04.155Z,96.22
2019-02-16T21:19:51.711Z,97.19
2019-02-16T21:22:28.438Z,97.08
2019-02-16T21:25:04.948Z,96.90
2019-02-16T21:27:35.906Z,97.80
2019-02-16T21:30:21.246Z,97.28
2019-02-16T21:32:55.156Z,96.60
2019-02-16T21:35:26.175Z,97.19
2019-02-16T21:38:06.199Z,97.75
2019-02-16T21:40:37.195Z,97.94
2019-02-16T21:43:20.366Z,97.94
2019-02-16T21:45:54.342Z,99.00
2019-02-16T21:48:27.310Z,99.79
2019-02-16T21:51:13.324Z,99.38
2019-02-16T21:53:47.074Z,99.98
2019-02-16T21:56:21.277Z,98.95
2019-02-16T21:59:18.865Z,99.16
2019-02-16T22:01:43.182Z,99.16
2019-02-16T22:04:16.103Z,99.70
2019-02-16T22:06:46.755Z,100.00
2019-02-16T22:09:26.936Z,100.00
2019-02-16T22:11:57.883Z,100.00
2019-02-16T22:14:27.225Z,100.00
2019-02-16T22:16:56.549Z,100.00
2019-02-16T22:19:26.342Z,100.00
2019-02-16T22:21:55.745Z,99.95
2019-02-16T22:24:25.330Z,99.47
2019-02-16T22:26:54.788Z,99.58
2019-02-16T22:29:24.176Z,100.00
2019-02-16T22:31:53.495Z,100.00
2019-02-16T22:34:22.975Z,99.91
2019-02-16T22:36:52.278Z,99.56
2019-02-16T22:39:21.683Z,99.56
2019-02-16T22:41:51.049Z,100.00
2019-02-16T22:44:20.380Z,100.00
2019-02-16T22:46:49.748Z,99.68
2019-02-16T22:49:20.884Z,99.68
2019-02-16T22:51:50.177Z,100.00
2019-02-16T22:54:19.693Z,100.00
2019-02-16T22:56:49.066Z,100.00
2019-02-16T22:59:18.426Z,100.00
2019-02-16T23:01:47.851Z,100.00
2019-02-16T23:04:17.493Z,100.00
2019-02-16T23:06:46.889Z,100.00
2019-02-16T23:09:18.237Z,100.00
2019-02-16T23:11:47.595Z,100.00
2019-02-16T23:14:17.077Z,100.00
2019-02-16T23:16:46.430Z,100.00
2019-02-16T23:19:15.810Z,100.00
2019-02-16T23:21:45.277Z,100.00
2019-02-16T23:24:14.593Z,100.00
2019-02-16T23:26:43.975Z,99.91
2019-02-16T23:29:13.301Z,99.08
2019-02-16T23:31:42.831Z,98.20
2019-02-16T23:34:12.280Z,98.63
2019-02-16T23:36:42.044Z,98.63
2019-02-16T23:39:13.304Z,98.91
2019-02-16T23:41:42.672Z,99.54
2019-02-16T23:44:12.066Z,100.00
2019-02-16T23:46:41.449Z,100.00
2019-02-16T23:49:10.807Z,100.00
2019-02-16T23:51:40.221Z,100.00
2019-02-16T23:54:09.653Z,100.00
2019-02-16T23:56:38.956Z,100.00
2019-02-16T23:59:08.407Z,100.00
